sensor_id;sensor_type;location;lat;lon;timestamp;pressure;altitude;pressure_sealevel;temperature;humidity
23733;BME280;12047;53.450;-2.286;2023-03-15T00:01:29;101094.91;;;8.32;100.00
23733;BME280;12047;53.450;-2.286;2023-03-15T00:06:31;101110.91;;;8.76;100.00
23733;BME280;12047;53.450;-2.286;2023-03-15T00:11:35;101116.53;;;8.72;100.00
23733;BME280;12047;53.450;-2.286;2023-03-15T00:16:35;101107.06;;;7.74;100.00
23733;BME280;12047;53.450;-2.286;2023-03-15T00:21:36;101116.66;;;8.70;100.00
23733;BME280;12047;53.450;-2.286;2023-03-15T00:26:37;101120.19;;;8.47;100.00
23733;BME280;12047;53.450;-2.286;2023-03-15T00:31:37;101120.47;;;8.66;100.00
23733;BME280;12047;53.450;-2.286;2023-03-15T00:36:38;101116.97;;;7.83;100.00
23733;BME280;12047;53.450;-2.286;2023-03-15T00:41:42;101127.66;;;8.53;100.00
23733;BME280;12047;53.450;-2.286;2023-03-15T00:46:44;101131.34;;;8.27;100.00
23733;BME280;12047;53.450;-2.286;2023-03-15T00:51:45;101129.09;;;7.11;100.00
23733;BME280;12047;53.450;-2.286;2023-03-15T00:56:45;101128.25;;;7.72;100.00
23733;BME280;12047;53.450;-2.286;2023-03-15T01:01:46;101136.25;;;8.44;100.00
23733;BME280;12047;53.450;-2.286;2023-03-15T01:06:46;101141.06;;;8.26;100.00
23733;BME280;12047;53.450;-2.286;2023-03-15T01:11:47;101149.53;;;8.18;100.00
23733;BME280;12047;53.450;-2.286;2023-03-15T01:16:48;101164.38;;;8.08;100.00
23733;BME280;12047;53.450;-2.286;2023-03-15T01:21:48;101183.78;;;8.44;100.00
23733;BME280;12047;53.450;-2.286;2023-03-15T01:26:49;101173.31;;;8.42;100.00
23733;BME280;12047;53.450;-2.286;2023-03-15T01:31:49;101178.31;;;7.23;100.00
23733;BME280;12047;53.450;-2.286;2023-03-15T01:36:50;101183.81;;;8.07;100.00
23733;BME280;12047;53.450;-2.286;2023-03-15T01:41:54;101179.69;;;7.67;100.00
23733;BME280;12047;53.450;-2.286;2023-03-15T01:46:54;101175.38;;;8.26;100.00
23733;BME280;12047;53.450;-2.286;2023-03-15T01:52:02;101191.88;;;8.17;100.00
23733;BME280;12047;53.450;-2.286;2023-03-15T01:57:10;101196.56;;;8.13;100.00
23733;BME280;12047;53.450;-2.286;2023-03-15T02:02:12;101194.00;;;7.88;100.00
23733;BME280;12047;53.450;-2.286;2023-03-15T02:07:15;101186.41;;;7.71;100.00
23733;BME280;12047;53.450;-2.286;2023-03-15T02:12:17;101199.75;;;7.93;100.00
23733;BME280;12047;53.450;-2.286;2023-03-15T02:17:20;101192.13;;;7.52;100.00
23733;BME280;12047;53.450;-2.286;2023-03-15T02:22:31;101188.00;;;7.73;100.00
23733;BME280;12047;53.450;-2.286;2023-03-15T02:27:38;101185.72;;;8.05;100.00
23733;BME280;12047;53.450;-2.286;2023-03-15T02:32:41;101185.28;;;7.62;100.00
23733;BME280;12047;53.450;-2.286;2023-03-15T02:37:41;101188.19;;;8.32;100.00
23733;BME280;12047;53.450;-2.286;2023-03-15T02:42:46;101199.81;;;7.80;100.00
23733;BME280;12047;53.450;-2.286;2023-03-15T02:47:48;101195.16;;;7.84;100.00
23733;BME280;12047;53.450;-2.286;2023-03-15T02:52:49;101199.38;;;8.60;100.00
23733;BME280;12047;53.450;-2.286;2023-03-15T02:57:51;101195.03;;;8.22;100.00
23733;BME280;12047;53.450;-2.286;2023-03-15T03:02:52;101205.66;;;7.97;100.00
23733;BME280;12047;53.450;-2.286;2023-03-15T03:07:52;101203.00;;;8.46;100.00
23733;BME280;12047;53.450;-2.286;2023-03-15T03:12:53;101210.25;;;7.82;100.00
23733;BME280;12047;53.450;-2.286;2023-03-15T03:17:54;101194.19;;;8.93;100.00
23733;BME280;12047;53.450;-2.286;2023-03-15T03:22:54;101190.31;;;8.51;100.00
23733;BME280;12047;53.450;-2.286;2023-03-15T03:27:55;101188.97;;;7.60;100.00
23733;BME280;12047;53.450;-2.286;2023-03-15T03:32:56;101188.34;;;7.56;100.00
23733;BME280;12047;53.450;-2.286;2023-03-15T03:37:56;101197.41;;;7.27;100.00
23733;BME280;12047;53.450;-2.286;2023-03-15T03:42:57;101195.44;;;6.65;100.00
23733;BME280;12047;53.450;-2.286;2023-03-15T03:47:57;101187.19;;;7.09;100.00
23733;BME280;12047;53.450;-2.286;2023-03-15T03:52:58;101193.38;;;7.72;100.00
23733;BME280;12047;53.450;-2.286;2023-03-15T03:57:59;101201.63;;;7.55;100.00
23733;BME280;12047;53.450;-2.286;2023-03-15T04:03:02;101193.16;;;7.75;100.00
23733;BME280;12047;53.450;-2.286;2023-03-15T04:08:03;101204.25;;;7.55;100.00
23733;BME280;12047;53.450;-2.286;2023-03-15T04:13:04;101201.00;;;7.26;100.00
23733;BME280;12047;53.450;-2.286;2023-03-15T04:18:04;101190.56;;;7.37;100.00
23733;BME280;12047;53.450;-2.286;2023-03-15T04:23:05;101191.19;;;7.53;100.00
23733;BME280;12047;53.450;-2.286;2023-03-15T04:28:07;101193.06;;;8.49;100.00
23733;BME280;12047;53.450;-2.286;2023-03-15T04:33:10;101198.56;;;7.61;100.00
23733;BME280;12047;53.450;-2.286;2023-03-15T04:38:10;101202.06;;;7.98;100.00
23733;BME280;12047;53.450;-2.286;2023-03-15T04:43:11;101197.41;;;7.52;100.00
23733;BME280;12047;53.450;-2.286;2023-03-15T04:48:12;101194.97;;;7.49;100.00
23733;BME280;12047;53.450;-2.286;2023-03-15T04:53:13;101198.66;;;7.46;100.00
23733;BME280;12047;53.450;-2.286;2023-03-15T04:58:13;101198.56;;;7.48;100.00
23733;BME280;12047;53.450;-2.286;2023-03-15T05:03:14;101190.78;;;7.34;100.00
23733;BME280;12047;53.450;-2.286;2023-03-15T05:08:15;101201.38;;;7.70;100.00
23733;BME280;12047;53.450;-2.286;2023-03-15T05:13:15;101202.84;;;7.87;100.00
23733;BME280;12047;53.450;-2.286;2023-03-15T05:18:18;101212.91;;;7.31;100.00
23733;BME280;12047;53.450;-2.286;2023-03-15T05:23:24;101213.97;;;7.67;100.00
23733;BME280;12047;53.450;-2.286;2023-03-15T05:28:25;101221.34;;;7.49;100.00
23733;BME280;12047;53.450;-2.286;2023-03-15T05:33:25;101227.75;;;7.70;100.00
23733;BME280;12047;53.450;-2.286;2023-03-15T05:38:26;101230.81;;;6.61;100.00
23733;BME280;12047;53.450;-2.286;2023-03-15T05:43:26;101218.94;;;6.41;100.00
23733;BME280;12047;53.450;-2.286;2023-03-15T05:48:27;101229.34;;;6.70;100.00
23733;BME280;12047;53.450;-2.286;2023-03-15T05:53:27;101231.13;;;6.69;100.00
23733;BME280;12047;53.450;-2.286;2023-03-15T05:58:28;101229.41;;;6.95;100.00
23733;BME280;12047;53.450;-2.286;2023-03-15T06:03:29;101229.03;;;6.21;100.00
23733;BME280;12047;53.450;-2.286;2023-03-15T06:08:30;101230.09;;;6.45;100.00
23733;BME280;12047;53.450;-2.286;2023-03-15T06:13:31;101227.63;;;6.56;100.00
23733;BME280;12047;53.450;-2.286;2023-03-15T06:18:31;101222.25;;;6.31;100.00
23733;BME280;12047;53.450;-2.286;2023-03-15T06:23:32;101224.88;;;6.31;100.00
23733;BME280;12047;53.450;-2.286;2023-03-15T06:28:33;101225.44;;;6.22;100.00
23733;BME280;12047;53.450;-2.286;2023-03-15T06:33:33;101243.44;;;6.01;100.00
23733;BME280;12047;53.450;-2.286;2023-03-15T06:38:34;101239.03;;;6.01;100.00
23733;BME280;12047;53.450;-2.286;2023-03-15T06:43:35;101235.25;;;5.77;100.00
23733;BME280;12047;53.450;-2.286;2023-03-15T06:48:38;101236.81;;;6.63;100.00
23733;BME280;12047;53.450;-2.286;2023-03-15T06:53:38;101238.84;;;6.19;100.00
23733;BME280;12047;53.450;-2.286;2023-03-15T06:58:39;101247.19;;;5.97;100.00
23733;BME280;12047;53.450;-2.286;2023-03-15T07:03:40;101243.25;;;6.72;100.00
23733;BME280;12047;53.450;-2.286;2023-03-15T07:08:43;101241.88;;;6.39;100.00
23733;BME280;12047;53.450;-2.286;2023-03-15T07:13:43;101244.41;;;6.68;100.00
23733;BME280;12047;53.450;-2.286;2023-03-15T07:18:44;101242.63;;;7.08;100.00
23733;BME280;12047;53.450;-2.286;2023-03-15T07:23:48;101235.88;;;6.37;100.00
23733;BME280;12047;53.450;-2.286;2023-03-15T07:28:48;101241.41;;;7.39;100.00
23733;BME280;12047;53.450;-2.286;2023-03-15T07:33:48;101239.56;;;6.74;100.00
23733;BME280;12047;53.450;-2.286;2023-03-15T07:38:49;101234.63;;;7.85;100.00
23733;BME280;12047;53.450;-2.286;2023-03-15T07:43:53;101226.50;;;7.76;100.00
23733;BME280;12047;53.450;-2.286;2023-03-15T07:48:53;101235.91;;;7.80;100.00
23733;BME280;12047;53.450;-2.286;2023-03-15T07:53:54;101230.59;;;7.93;100.00
23733;BME280;12047;53.450;-2.286;2023-03-15T07:58:54;101224.34;;;8.43;100.00
23733;BME280;12047;53.450;-2.286;2023-03-15T08:03:55;101221.72;;;8.43;100.00
23733;BME280;12047;53.450;-2.286;2023-03-15T08:08:55;101219.75;;;8.21;100.00
23733;BME280;12047;53.450;-2.286;2023-03-15T08:13:56;101230.78;;;8.02;100.00
23733;BME280;12047;53.450;-2.286;2023-03-15T08:18:57;101235.50;;;8.59;100.00
23733;BME280;12047;53.450;-2.286;2023-03-15T08:23:59;101231.66;;;8.87;100.00
23733;BME280;12047;53.450;-2.286;2023-03-15T08:29:00;101236.06;;;9.10;100.00
23733;BME280;12047;53.450;-2.286;2023-03-15T08:34:01;101220.28;;;10.00;100.00
23733;BME280;12047;53.450;-2.286;2023-03-15T08:39:02;101222.44;;;9.72;100.00
23733;BME280;12047;53.450;-2.286;2023-03-15T08:44:04;101222.63;;;9.13;100.00
23733;BME280;12047;53.450;-2.286;2023-03-15T08:49:05;101228.59;;;9.04;100.00
23733;BME280;12047;53.450;-2.286;2023-03-15T08:54:06;101231.00;;;10.09;100.00
23733;BME280;12047;53.450;-2.286;2023-03-15T08:59:07;101226.06;;;9.82;100.00
23733;BME280;12047;53.450;-2.286;2023-03-15T09:04:09;101224.47;;;9.91;100.00
23733;BME280;12047;53.450;-2.286;2023-03-15T09:09:10;101231.47;;;9.92;100.00
23733;BME280;12047;53.450;-2.286;2023-03-15T09:14:10;101236.28;;;10.09;100.00
23733;BME280;12047;53.450;-2.286;2023-03-15T09:19:13;101233.78;;;9.63;100.00
23733;BME280;12047;53.450;-2.286;2023-03-15T09:24:14;101231.81;;;10.10;100.00
23733;BME280;12047;53.450;-2.286;2023-03-15T09:29:14;101232.19;;;9.94;100.00
23733;BME280;12047;53.450;-2.286;2023-03-15T09:34:15;101230.00;;;10.76;100.00
23733;BME280;12047;53.450;-2.286;2023-03-15T09:39:21;101235.28;;;11.08;100.00
23733;BME280;12047;53.450;-2.286;2023-03-15T09:54:57;101222.16;;;11.27;100.00
23733;BME280;12047;53.450;-2.286;2023-03-15T10:00:02;101224.31;;;10.80;100.00
23733;BME280;12047;53.450;-2.286;2023-03-15T10:05:19;101218.91;;;10.16;100.00
23733;BME280;12047;53.450;-2.286;2023-03-15T10:10:29;101216.59;;;10.88;100.00
23733;BME280;12047;53.450;-2.286;2023-03-15T10:20:38;101209.84;;;11.26;100.00
23733;BME280;12047;53.450;-2.286;2023-03-15T10:25:45;101207.78;;;11.81;100.00
23733;BME280;12047;53.450;-2.286;2023-03-15T10:30:48;101198.38;;;12.07;100.00
23733;BME280;12047;53.450;-2.286;2023-03-15T10:35:49;101196.97;;;12.13;100.00
23733;BME280;12047;53.450;-2.286;2023-03-15T10:40:57;101197.44;;;11.78;100.00
23733;BME280;12047;53.450;-2.286;2023-03-15T10:46:01;101188.34;;;12.30;100.00
23733;BME280;12047;53.450;-2.286;2023-03-15T10:51:29;101183.88;;;12.31;100.00
23733;BME280;12047;53.450;-2.286;2023-03-15T10:56:30;101181.88;;;12.13;100.00
23733;BME280;12047;53.450;-2.286;2023-03-15T11:01:34;101170.41;;;12.13;100.00
23733;BME280;12047;53.450;-2.286;2023-03-15T11:06:51;101153.41;;;12.44;100.00
23733;BME280;12047;53.450;-2.286;2023-03-15T11:12:02;101158.53;;;12.07;100.00
23733;BME280;12047;53.450;-2.286;2023-03-15T11:17:04;101158.97;;;12.22;100.00
23733;BME280;12047;53.450;-2.286;2023-03-15T11:22:07;101159.97;;;12.50;100.00
23733;BME280;12047;53.450;-2.286;2023-03-15T11:27:13;101149.75;;;12.74;100.00
23733;BME280;12047;53.450;-2.286;2023-03-15T11:32:17;101148.22;;;12.43;100.00
23733;BME280;12047;53.450;-2.286;2023-03-15T11:42:33;101139.22;;;13.02;100.00
23733;BME280;12047;53.450;-2.286;2023-03-15T11:47:46;101133.81;;;12.55;100.00
23733;BME280;12047;53.450;-2.286;2023-03-15T11:52:50;101109.56;;;12.87;100.00
23733;BME280;12047;53.450;-2.286;2023-03-15T11:57:52;101117.94;;;13.48;100.00
23733;BME280;12047;53.450;-2.286;2023-03-15T12:02:59;101122.88;;;13.43;100.00
23733;BME280;12047;53.450;-2.286;2023-03-15T12:08:23;101121.47;;;12.83;100.00
23733;BME280;12047;53.450;-2.286;2023-03-15T12:13:27;101118.19;;;13.18;100.00
23733;BME280;12047;53.450;-2.286;2023-03-15T12:18:42;101113.56;;;13.20;100.00
23733;BME280;12047;53.450;-2.286;2023-03-15T12:24:00;101108.69;;;13.15;100.00
23733;BME280;12047;53.450;-2.286;2023-03-15T12:29:23;101102.06;;;12.53;100.00
23733;BME280;12047;53.450;-2.286;2023-03-15T12:34:29;101102.06;;;12.53;100.00
23733;BME280;12047;53.450;-2.286;2023-03-15T12:39:40;101085.88;;;12.93;100.00
23733;BME280;12047;53.450;-2.286;2023-03-15T12:44:42;101088.50;;;12.27;100.00
23733;BME280;12047;53.450;-2.286;2023-03-15T12:49:44;101072.16;;;13.08;99.62
23733;BME280;12047;53.450;-2.286;2023-03-15T12:54:59;101069.09;;;13.40;99.43
23733;BME280;12047;53.450;-2.286;2023-03-15T13:00:13;101058.66;;;13.19;100.00
23733;BME280;12047;53.450;-2.286;2023-03-15T13:15:44;101051.69;;;13.08;99.15
23733;BME280;12047;53.450;-2.286;2023-03-15T13:21:12;101047.16;;;13.28;97.66
23733;BME280;12047;53.450;-2.286;2023-03-15T13:27:02;101053.06;;;12.66;97.00
23733;BME280;12047;53.450;-2.286;2023-03-15T13:32:21;101041.25;;;12.87;98.21
23733;BME280;12047;53.450;-2.286;2023-03-15T13:37:24;101033.28;;;13.34;97.98
23733;BME280;12047;53.450;-2.286;2023-03-15T13:42:31;101017.50;;;13.13;97.55
23733;BME280;12047;53.450;-2.286;2023-03-15T13:47:33;101007.47;;;12.98;97.56
23733;BME280;12047;53.450;-2.286;2023-03-15T13:52:33;101005.84;;;13.24;97.78
23733;BME280;12047;53.450;-2.286;2023-03-15T13:57:36;101002.78;;;13.19;97.90
23733;BME280;12047;53.450;-2.286;2023-03-15T14:02:47;100996.31;;;13.31;97.27
23733;BME280;12047;53.450;-2.286;2023-03-15T14:08:00;101003.28;;;12.95;98.37
23733;BME280;12047;53.450;-2.286;2023-03-15T14:13:25;100986.75;;;13.01;98.67
23733;BME280;12047;53.450;-2.286;2023-03-15T14:18:33;100983.63;;;12.32;100.00
23733;BME280;12047;53.450;-2.286;2023-03-15T14:23:38;100971.03;;;12.80;100.00
23733;BME280;12047;53.450;-2.286;2023-03-15T14:28:40;100975.91;;;12.85;100.00
23733;BME280;12047;53.450;-2.286;2023-03-15T14:33:41;100974.94;;;12.86;100.00
23733;BME280;12047;53.450;-2.286;2023-03-15T14:38:52;100960.16;;;12.64;100.00
23733;BME280;12047;53.450;-2.286;2023-03-15T14:43:53;100963.63;;;12.27;100.00
23733;BME280;12047;53.450;-2.286;2023-03-15T14:48:53;100946.34;;;12.51;100.00
23733;BME280;12047;53.450;-2.286;2023-03-15T14:53:55;100941.59;;;12.54;100.00
23733;BME280;12047;53.450;-2.286;2023-03-15T14:58:56;100941.31;;;13.12;100.00
23733;BME280;12047;53.450;-2.286;2023-03-15T15:03:59;100945.94;;;12.55;100.00
23733;BME280;12047;53.450;-2.286;2023-03-15T15:09:01;100937.25;;;11.97;100.00
23733;BME280;12047;53.450;-2.286;2023-03-15T15:14:02;100917.38;;;12.01;100.00
23733;BME280;12047;53.450;-2.286;2023-03-15T15:19:02;100921.75;;;12.49;100.00
23733;BME280;12047;53.450;-2.286;2023-03-15T15:24:10;100911.31;;;12.65;100.00
23733;BME280;12047;53.450;-2.286;2023-03-15T15:29:13;100897.59;;;12.70;100.00
23733;BME280;12047;53.450;-2.286;2023-03-15T15:34:14;100893.09;;;12.43;100.00
23733;BME280;12047;53.450;-2.286;2023-03-15T15:39:25;100893.34;;;12.49;100.00
23733;BME280;12047;53.450;-2.286;2023-03-15T15:44:26;100877.59;;;12.66;100.00
23733;BME280;12047;53.450;-2.286;2023-03-15T15:49:27;100858.00;;;12.39;100.00
23733;BME280;12047;53.450;-2.286;2023-03-15T15:54:28;100858.69;;;12.04;100.00
23733;BME280;12047;53.450;-2.286;2023-03-15T15:59:30;100843.91;;;12.29;100.00
23733;BME280;12047;53.450;-2.286;2023-03-15T16:04:31;100837.06;;;11.41;100.00
23733;BME280;12047;53.450;-2.286;2023-03-15T16:09:33;100842.19;;;12.65;100.00
23733;BME280;12047;53.450;-2.286;2023-03-15T16:14:36;100822.97;;;11.41;100.00
23733;BME280;12047;53.450;-2.286;2023-03-15T16:19:37;100834.13;;;12.30;100.00
23733;BME280;12047;53.450;-2.286;2023-03-15T16:24:42;100828.63;;;12.04;100.00
23733;BME280;12047;53.450;-2.286;2023-03-15T16:29:46;100824.34;;;12.30;100.00
23733;BME280;12047;53.450;-2.286;2023-03-15T16:34:48;100815.00;;;11.79;100.00
23733;BME280;12047;53.450;-2.286;2023-03-15T16:39:49;100810.81;;;11.77;100.00
23733;BME280;12047;53.450;-2.286;2023-03-15T16:44:52;100791.41;;;11.47;100.00
23733;BME280;12047;53.450;-2.286;2023-03-15T16:49:55;100790.16;;;11.51;100.00
23733;BME280;12047;53.450;-2.286;2023-03-15T16:54:56;100788.84;;;11.75;100.00
23733;BME280;12047;53.450;-2.286;2023-03-15T16:59:56;100772.72;;;11.20;100.00
23733;BME280;12047;53.450;-2.286;2023-03-15T17:04:57;100766.44;;;11.31;100.00
23733;BME280;12047;53.450;-2.286;2023-03-15T17:10:07;100754.44;;;11.92;100.00
23733;BME280;12047;53.450;-2.286;2023-03-15T17:15:09;100747.41;;;11.45;100.00
23733;BME280;12047;53.450;-2.286;2023-03-15T17:20:12;100755.69;;;10.94;100.00
23733;BME280;12047;53.450;-2.286;2023-03-15T17:25:14;100743.63;;;11.57;100.00
23733;BME280;12047;53.450;-2.286;2023-03-15T17:30:25;100739.47;;;11.45;100.00
23733;BME280;12047;53.450;-2.286;2023-03-15T17:35:32;100728.94;;;12.09;100.00
23733;BME280;12047;53.450;-2.286;2023-03-15T17:40:34;100729.53;;;12.31;100.00
23733;BME280;12047;53.450;-2.286;2023-03-15T17:45:35;100719.44;;;11.79;100.00
23733;BME280;12047;53.450;-2.286;2023-03-15T17:50:36;100722.94;;;12.35;100.00
23733;BME280;12047;53.450;-2.286;2023-03-15T17:55:36;100716.19;;;11.85;100.00
23733;BME280;12047;53.450;-2.286;2023-03-15T18:00:37;100707.63;;;12.19;100.00
23733;BME280;12047;53.450;-2.286;2023-03-15T18:05:38;100706.06;;;12.44;100.00
23733;BME280;12047;53.450;-2.286;2023-03-15T18:10:39;100699.75;;;12.27;100.00
23733;BME280;12047;53.450;-2.286;2023-03-15T18:15:46;100681.16;;;18.00;100.00
23733;BME280;12047;53.450;-2.286;2023-03-15T18:20:48;100691.06;;;12.52;100.00
23733;BME280;12047;53.450;-2.286;2023-03-15T18:25:49;100680.31;;;11.81;100.00
23733;BME280;12047;53.450;-2.286;2023-03-15T18:30:49;100669.34;;;12.57;100.00
23733;BME280;12047;53.450;-2.286;2023-03-15T18:35:50;100668.34;;;11.95;100.00
23733;BME280;12047;53.450;-2.286;2023-03-15T18:40:53;100648.44;;;12.09;100.00
23733;BME280;12047;53.450;-2.286;2023-03-15T18:45:55;100644.44;;;11.95;100.00
23733;BME280;12047;53.450;-2.286;2023-03-15T18:50:55;100631.56;;;12.18;100.00
23733;BME280;12047;53.450;-2.286;2023-03-15T18:55:56;100623.06;;;12.14;100.00
23733;BME280;12047;53.450;-2.286;2023-03-15T19:00:57;100608.25;;;11.94;100.00
23733;BME280;12047;53.450;-2.286;2023-03-15T19:06:02;100605.56;;;11.67;100.00
23733;BME280;12047;53.450;-2.286;2023-03-15T19:11:04;100603.59;;;12.23;100.00
23733;BME280;12047;53.450;-2.286;2023-03-15T19:16:06;100600.84;;;12.51;100.00
23733;BME280;12047;53.450;-2.286;2023-03-15T19:21:09;100577.50;;;11.64;100.00
23733;BME280;12047;53.450;-2.286;2023-03-15T19:26:10;100571.31;;;12.18;100.00
23733;BME280;12047;53.450;-2.286;2023-03-15T19:31:13;100559.78;;;11.92;100.00
23733;BME280;12047;53.450;-2.286;2023-03-15T19:36:13;100555.38;;;12.18;100.00
23733;BME280;12047;53.450;-2.286;2023-03-15T19:41:14;100544.97;;;12.43;100.00
23733;BME280;12047;53.450;-2.286;2023-03-15T19:46:14;100544.75;;;12.18;100.00
23733;BME280;12047;53.450;-2.286;2023-03-15T19:51:16;100538.56;;;12.10;100.00
23733;BME280;12047;53.450;-2.286;2023-03-15T19:56:17;100541.69;;;12.49;100.00
23733;BME280;12047;53.450;-2.286;2023-03-15T20:01:17;100526.81;;;12.38;100.00
23733;BME280;12047;53.450;-2.286;2023-03-15T20:06:18;100522.91;;;12.24;100.00
23733;BME280;12047;53.450;-2.286;2023-03-15T20:11:18;100524.69;;;12.42;100.00
23733;BME280;12047;53.450;-2.286;2023-03-15T20:16:21;100521.50;;;12.38;100.00
23733;BME280;12047;53.450;-2.286;2023-03-15T20:21:22;100524.22;;;12.03;100.00
23733;BME280;12047;53.450;-2.286;2023-03-15T20:26:24;100512.16;;;12.52;100.00
23733;BME280;12047;53.450;-2.286;2023-03-15T20:31:27;100495.28;;;12.17;100.00
23733;BME280;12047;53.450;-2.286;2023-03-15T20:36:33;100502.44;;;12.43;100.00
23733;BME280;12047;53.450;-2.286;2023-03-15T20:41:34;100491.41;;;12.30;100.00
23733;BME280;12047;53.450;-2.286;2023-03-15T20:46:36;100495.91;;;12.55;100.00
23733;BME280;12047;53.450;-2.286;2023-03-15T20:51:37;100486.81;;;12.40;100.00
23733;BME280;12047;53.450;-2.286;2023-03-15T20:56:38;100479.63;;;12.32;100.00
23733;BME280;12047;53.450;-2.286;2023-03-15T21:01:38;100473.75;;;12.46;100.00
23733;BME280;12047;53.450;-2.286;2023-03-15T21:06:39;100470.16;;;12.55;100.00
23733;BME280;12047;53.450;-2.286;2023-03-15T21:11:40;100453.59;;;12.62;100.00
23733;BME280;12047;53.450;-2.286;2023-03-15T21:16:41;100453.16;;;12.74;100.00
23733;BME280;12047;53.450;-2.286;2023-03-15T21:21:42;100442.63;;;12.65;100.00
23733;BME280;12047;53.450;-2.286;2023-03-15T21:26:42;100438.91;;;12.49;100.00
23733;BME280;12047;53.450;-2.286;2023-03-15T21:31:47;100426.78;;;12.89;100.00
23733;BME280;12047;53.450;-2.286;2023-03-15T21:36:48;100421.19;;;13.34;100.00
23733;BME280;12047;53.450;-2.286;2023-03-15T21:41:49;100422.63;;;13.20;100.00
23733;BME280;12047;53.450;-2.286;2023-03-15T21:46:49;100409.59;;;12.67;100.00
23733;BME280;12047;53.450;-2.286;2023-03-15T21:51:52;100407.97;;;12.74;100.00
23733;BME280;12047;53.450;-2.286;2023-03-15T21:56:52;100403.78;;;13.06;100.00
23733;BME280;12047;53.450;-2.286;2023-03-15T22:01:54;100397.78;;;13.12;100.00
23733;BME280;12047;53.450;-2.286;2023-03-15T22:06:54;100398.09;;;13.51;100.00
23733;BME280;12047;53.450;-2.286;2023-03-15T22:11:55;100372.84;;;13.13;100.00
23733;BME280;12047;53.450;-2.286;2023-03-15T22:16:56;100365.69;;;12.55;100.00
23733;BME280;12047;53.450;-2.286;2023-03-15T22:21:56;100362.25;;;13.21;100.00
23733;BME280;12047;53.450;-2.286;2023-03-15T22:26:57;100347.19;;;12.87;100.00
23733;BME280;12047;53.450;-2.286;2023-03-15T22:32:00;100340.00;;;13.22;100.00
23733;BME280;12047;53.450;-2.286;2023-03-15T22:37:01;100337.69;;;13.35;100.00
23733;BME280;12047;53.450;-2.286;2023-03-15T22:42:02;100329.59;;;12.86;100.00
23733;BME280;12047;53.450;-2.286;2023-03-15T22:47:03;100322.06;;;13.32;100.00
23733;BME280;12047;53.450;-2.286;2023-03-15T22:52:04;100310.69;;;13.06;100.00
23733;BME280;12047;53.450;-2.286;2023-03-15T22:57:04;100298.03;;;13.00;100.00
23733;BME280;12047;53.450;-2.286;2023-03-15T23:02:05;100292.94;;;13.22;100.00
23733;BME280;12047;53.450;-2.286;2023-03-15T23:07:06;100288.53;;;12.81;100.00
23733;BME280;12047;53.450;-2.286;2023-03-15T23:12:07;100272.63;;;13.38;100.00
23733;BME280;12047;53.450;-2.286;2023-03-15T23:17:07;100267.66;;;13.26;100.00
23733;BME280;12047;53.450;-2.286;2023-03-15T23:22:09;100260.03;;;13.32;100.00
23733;BME280;12047;53.450;-2.286;2023-03-15T23:27:10;100257.78;;;12.94;100.00
23733;BME280;12047;53.450;-2.286;2023-03-15T23:32:10;100245.66;;;13.00;100.00
23733;BME280;12047;53.450;-2.286;2023-03-15T23:37:11;100248.50;;;13.63;100.00
23733;BME280;12047;53.450;-2.286;2023-03-15T23:42:14;100231.06;;;13.04;100.00
23733;BME280;12047;53.450;-2.286;2023-03-15T23:47:14;100228.56;;;13.59;100.00
23733;BME280;12047;53.450;-2.286;2023-03-15T23:52:16;100217.22;;;13.74;100.00
23733;BME280;12047;53.450;-2.286;2023-03-15T23:57:17;100215.28;;;13.11;100.00
